Terminal Aerodrome Forecast
Issued by NWS

Home | Current Version | Previous Version | Text Only | Print | Product List | Glossary On
Versions: 1 2 3 4 5 6 7 8 9 10 11 12 13 14 15
418
FTAK31 PAJN 241740
TAFAWG
TAF
PAWG 241740Z 2418/2518 11006KT P6SM -RA SCT018 OVC040
     FM242200 VRB04KT P6SM -SHRA SCT020 OVC035
     FM250900 VRB05KT P6SM -RA SCT020 OVC030
      AMD LTD TO CLD VIS AND WIND 2506/2515=

USA.gov is the U.S. government's official web portal to all federal, state and local government web resources and services.